Tiempo atmosférico en la estación meteorológica de Fuentes de Andalucía, Sevilla (165 m.)



Fecha
DESCASC
Temp. máxima en grados centígrados (hora)
DESCASC
Temp. mínima en grados centígrados (hora)
DESCASC
Temp. media en grados centígrados
DESCASC
Racha de viento máxima en m/sg (hora)
DESCASC
Velocidad máxima media en intervalos de 10 minutos(hora)
DESCASC
Precipitaciones diarias en mm
DESCASC
Precipitaciones de 00:00 a 06:00 en mm
DESCASC
Precipitaciones de 06:00 a 12:00 en mm
DESCASC
Precipitaciones de 12:00 a 18:00 en mm
DESCASC
Precipitaciones de 18:00 a 24:00 en mm
DESCASC
23-05-2018 29.9 (17:40) 13.6 (07:20) 21.8 7.22 (18:40) 5 (23:10) 0 0 0 0 0
22-05-2018 27.1 (17:40) 13.1 (03:10) 20.1 8.06 (17:40) 3.89 (00:10) 0 0 0 0 0
21-05-2018 25.2 (16:10) 14.6 (07:30) 19.9 12.5 (18:20) 8.61 (18:40) 0 0 0 0 0
20-05-2018 24.2 (17:00) 13.9 (00:00) 19.1 12.22 (18:40) 8.06 (18:50) 0.2 0.2 0 0 0
19-05-2018 28.2 (15:20) 14.3 (08:10) 21.3 10.28 (17:30) 6.11 (17:20) 4.6 0 0 2.8 1.8
18-05-2018 28.2 (17:10) 14.5 (00:00) 21.4 11.11 (17:20) 6.11 (17:20) 0 0 0 0 0
17-05-2018 29.5 (16:50) 12.7 (00:00) 21.1 10.83 (21:00) 7.78 (21:00) 0 0 0 0 0
16-05-2018 29.9 (18:40) 12.4 (00:00) 21.1 10.28 (16:00) 5 (23:00) 0 0 0 0 0
15-05-2018 29 (16:50) 12.3 (00:00) 20.7 9.72 (10:30) 4.72 (10:30) 0 0 0 0 0
14-05-2018 27.3 (17:20) 10.9 (00:00) 19.1 7.5 (14:40) 5 (19:10) 0 0 0 0 0
13-05-2018 23.8 (18:00) 9.1 (00:00) 16.4 7.78 (19:20) 5.28 (19:50) 0 0 0 0 0
12-05-2018 24.3 (17:30) 11.7 (00:00) 18 11.11 (20:40) 7.5 (17:50) 0 0 0 0 0
11-05-2018 24.9 (17:40) 11.3 (07:00) 18.1 10 (16:40) 6.11 (17:50) 0 0 0 0 0
10-05-2018 24 (17:40) 14.2 (00:00) 19.1 8.89 (15:40) 6.11 (19:50) 0 0 0 0 0
09-05-2018 19.5 (13:30) 14.8 (00:00) 17.2 8.89 (21:10) 6.39 (22:30) 0.2 0 0 0.2 0
08-05-2018 26.4 (15:40) 13.4 (00:00) 19.9 8.33 (18:50) 5.83 (19:20) 0 0 0 0 0
07-05-2018 28.2 (17:10) 13.2 (00:00) 20.7 9.72 (19:40) 6.39 (19:50) 0 0 0 0 0
06-05-2018 27.5 (17:40) 13.1 (00:00) 20.3 8.89 (15:10) 3.89 (11:10) 0 0 0 0 0
05-05-2018 27.8 (18:20) 10.7 (00:00) 19.2 6.11 (23:40) 4.44 (23:50) 0 0 0 0 0
04-05-2018 25.4 (17:40) 11.9 (00:00) 18.6 12.5 (18:30) 8.61 (18:50) 0 0 0 0 0
03-05-2018 24.8 (17:50) 9.3 (00:00) 17 8.33 (19:30) 4.72 (19:40) 0 0 0 0 0
02-05-2018 21 (17:00) 7 (00:00) 14 8.06 (21:40) 5.56 (21:20) 0 0 0 0 0
01-05-2018 16.9 (13:50) 7.5 (07:50) 12.2 11.39 (15:30) 7.22 (15:30) 1 0 0 1 0
30-04-2018 17.5 (17:30) 6.7 (00:00) 12.1 8.33 (18:00) 6.11 (18:00) 0 0 0 0 0
29-04-2018 18.3 (15:30) 6.4 (00:00) 12.3 15.28 (16:40) 9.44 (15:20) 0.2 0.2 0 0 0
28-04-2018 19.5 (16:40) 10.7 (00:00) 15.1 13.06 (16:40) 8.89 (19:40) 0 0 0 0 0
27-04-2018 24.7 (18:40) 13.7 (00:00) 19.2 9.17 (22:40) 6.11 (18:10) 0 0 0 0 0
26-04-2018 25.5 (17:20) 14 (00:00) 19.8 11.39 (00:10) 8.06 (00:10) 0.2 0.2 0 0 0
25-04-2018 25.4 (18:20) 13.4 (00:00) 19.4 9.17 (23:59) 6.11 (23:59) 2.4 0 0 0 2.4

Gráficas

Temp. máximas Temp. mínimas Temp. medias Precipitaciones Rachas de viento máximas Velocidades máximas media en intervalos de 10 minutos

Datos horarios

Fecha y hora oficial Temperatura (ºC) Velocidad del viento (km/h) Dirección del viento Racha (km/h) Dirección de racha Precipitación (mm) Presión (hPa) Tendencia (hPa) Humedad (%)
2018-05-24 23:00:00 14.7 4 Sudoeste 13 Sudoeste 0 -- -- 83
2018-05-24 22:00:00 15.2 7 Sudoeste 20 Oeste 0 -- -- 79
2018-05-24 21:00:00 16.4 15 Oeste 27 Sudoeste 0 -- -- 70
2018-05-24 20:00:00 17.3 21 Sudoeste 36 Sudoeste 0 -- -- 70
2018-05-24 19:00:00 18.6 26 Sudoeste 45 Sudoeste 0 -- -- 66
2018-05-24 18:00:00 21.4 25 Oeste 39 Oeste 0 -- -- 59
2018-05-24 17:00:00 22.8 26 Oeste 40 Oeste 0 -- -- 50
2018-05-24 16:00:00 23.5 23 Oeste 43 Oeste 0 -- -- 52
2018-05-24 15:00:00 23.9 23 Oeste 38 Oeste 0 -- -- 51
2018-05-24 14:00:00 23.5 28 Sudoeste 42 Sudoeste 0 -- -- 56
2018-05-24 13:00:00 23.9 20 Oeste 36 Oeste 0 -- -- 55
2018-05-24 12:00:00 23 21 Sudoeste 32 Sudoeste 0 -- -- 56
2018-05-24 11:00:00 21.6 19 Sudoeste 27 Sudoeste 0 -- -- 62
2018-05-24 10:00:00 20.4 12 Sudoeste 18 Sudoeste 0 -- -- 69
2018-05-24 09:00:00 18 11 Sudoeste 15 Sur 0 -- -- 83
2018-05-24 08:00:00 16.2 9 Sudoeste 12 Sudoeste 0 -- -- 88
2018-05-24 07:00:00 16.1 9 Sudoeste 14 Sur 0 -- -- 87
2018-05-24 06:00:00 16 13 Sur 19 Sur 0 -- -- 84
2018-05-24 05:00:00 16.4 6 Sur 12 Sudoeste 0 -- -- 83
2018-05-24 04:00:00 16.4 9 Sudoeste 13 Sudoeste 0 -- -- 81
2018-05-24 03:00:00 16.3 8 Sudoeste 15 Sudoeste 0 -- -- 81
2018-05-24 02:00:00 17 10 Sudoeste 23 Sudoeste 0 -- -- 78
2018-05-24 01:00:00 18.3 15 Sudoeste 25 Sudoeste 0 -- -- 73
2018-05-24 00:00:00 19.7 16 Sudoeste 26 Sudoeste 0 -- -- 69
2018-05-23 23:00:00 21.7 17 Sur 26 Sur 0 -- -- 63
2018-05-23 22:00:00 24.2 8 Sudeste 14 Sudeste 0 -- -- 38
2018-05-23 21:00:00 26.3 7 Este 15 Sudeste 0 -- -- 38
2018-05-23 20:00:00 27.6 8 Sudeste 21 Sudeste 0 -- -- 33
2018-05-23 19:00:00 28.1 13 Sudeste 26 Sudeste 0 -- -- 31
2018-05-23 18:00:00 29.5 6 Este 21 Sudeste 0 -- -- 30
2018-05-23 17:00:00 29.7 6 Nordeste 17 Este 0 -- -- 29
2018-05-23 16:00:00 28.1 4 Este 15 Este 0 -- -- 32
2018-05-23 15:00:00 27.5 4 Este 19 Sudoeste 0 -- -- 34
2018-05-23 14:00:00 26.8 10 Sudoeste 23 Sudoeste 0 -- -- 34
2018-05-23 13:00:00 26.3 9 Sudeste 21 Sudeste 0 -- -- 35
2018-05-23 12:00:00 24.6 5 Sudeste 19 Sudeste 0 -- -- 40
2018-05-23 11:00:00 24.1 11 Este 23 Este 0 -- -- 45
2018-05-23 10:00:00 21.2 5 Nordeste 13 Nordeste 0 -- -- 61
2018-05-23 09:00:00 17.9 4 Nordeste 9 Este 0 -- -- 74
2018-05-23 08:00:00 14.1 6 Este 11 Este 0 -- -- 86
2018-05-23 07:00:00 14.1 7 Este 10 Nordeste 0 -- -- 84
2018-05-23 06:00:00 15.6 5 Sur 12 Sudoeste 0 -- -- 85
2018-05-23 05:00:00 15.1 10 Sudoeste 18 Sur 0 -- -- 83
2018-05-23 04:00:00 16.2 13 Sur 16 Sur 0 -- -- 77
2018-05-23 03:00:00 17.7 12 Sur 13 Sur 0 -- -- 67
2018-05-23 02:00:00 18.6 3 Sur 6 Noroeste 0 -- -- 62
2018-05-23 01:00:00 19 5 Norte 8 Nordeste 0 -- -- 61
2018-05-23 00:00:00 19.8 5 Noroeste 9 Noroeste 0 -- -- 61
2018-05-22 23:00:00 19.9 7 Noroeste 10 Oeste 0 -- -- 60
2018-05-22 22:00:00 21.1 7 Noroeste 13 Noroeste 0 -- -- 55
2018-05-22 21:00:00 23.7 10 Noroeste 18 Noroeste 0 -- -- 44
2018-05-22 20:00:00 25.6 9 Oeste 15 Oeste 0 -- -- 39
2018-05-22 19:00:00 26.6 8 Oeste 19 Sudoeste 0 -- -- 35
2018-05-22 18:00:00 26.8 9 Noroeste 29 Noroeste 0 -- -- 33
2018-05-22 17:00:00 26.2 10 Oeste 21 Oeste 0 -- -- 42
2018-05-22 16:00:00 25.7 9 Noroeste 23 Sudoeste 0 -- -- 47
2018-05-22 15:00:00 24.4 5 Sudeste 14 Este 0 -- -- 49
2018-05-22 14:00:00 22.3 5 Este 17 Nordeste 0 -- -- 56
2018-05-22 13:00:00 20.4 5 Este 14 Norte 0 -- -- 63
2018-05-22 12:00:00 18.3 6 Este 14 Norte 0 -- -- 70
2018-05-22 11:00:00 17 6 Este 13 Este 0 -- -- 74
2018-05-22 10:00:00 15.7 4 Sudeste 10 Este 0 -- -- 80
2018-05-22 09:00:00 15.2 3 Este 7 Sudeste 0 -- -- 83
2018-05-22 08:00:00 14.7 2 Sudoeste 9 Sur 0 -- -- 85
2018-05-22 07:00:00 14.2 3 Sur 6 Sur 0 -- -- 91
2018-05-22 06:00:00 13.9 3 Sur 9 Sur 0 -- -- 93
2018-05-22 05:00:00 13.5 5 Sur 10 Sur 0 -- -- 94
2018-05-22 04:00:00 13.1 6 Sur 11 Sudoeste 0 -- -- 94
2018-05-22 03:00:00 13.2 8 Sudoeste 14 Sudoeste 0 -- -- 93
2018-05-22 02:00:00 13.4 10 Sudoeste 14 Sudoeste 0 -- -- 92
2018-05-22 01:00:00 14.2 8 Sur 21 Sudoeste 0 -- -- 91
2018-05-22 00:00:00 15.1 13 Sudoeste 23 Sudoeste 0 -- -- 89
2018-05-21 23:00:00 16.2 14 Sudoeste 21 Sudoeste 0 -- -- 88
2018-05-21 22:00:00 18.2 10 Sur 17 Sur 0 -- -- 81
2018-05-21 21:00:00 18.8 7 Sudoeste 14 Sudoeste 0 -- -- 78
2018-05-21 20:00:00 18.4 14 Sudoeste 25 Oeste 0 -- -- 73
2018-05-21 19:00:00 18.3 21 Oeste 45 Oeste 0 -- -- 74
2018-05-21 18:00:00 24.8 18 Sudoeste 31 Sudoeste 0 -- -- 50
2018-05-21 17:00:00 22.9 18 Sudoeste 43 Sudoeste 0 -- -- 52
2018-05-21 16:00:00 24.9 16 Oeste 40 Sudoeste 0 -- -- 47
2018-05-21 15:00:00 24 17 Sudoeste 33 Sudoeste 0 -- -- 51
2018-05-21 14:00:00 22.5 8 Oeste 19 Oeste 0 -- -- 54
2018-05-21 13:00:00 21.8 7 Oeste 15 Oeste 0 -- -- 57
2018-05-21 12:00:00 19.4 4 Oeste 10 Sudoeste 0 -- -- 68
2018-05-21 11:00:00 18.1 4 Sur 7 Sudoeste 0 -- -- 71
2018-05-21 10:00:00 16.7 3 Noroeste 8 Este 0 -- -- 82
2018-05-21 09:00:00 15.6 3 Este 9 Este 0 -- -- 90
2018-05-21 08:00:00 14.8 4 Este 6 Este 0 -- -- 91
2018-05-21 07:00:00 14.8 2 Nordeste 5 Este 0 -- -- 89
2018-05-21 06:00:00 15.2 0 Calma 8 Sudeste 0 -- -- 88
2018-05-21 05:00:00 15.2 5 Sudeste 12 Sudeste 0 -- -- 88
2018-05-21 04:00:00 15 3 Este 9 Sudeste 0 -- -- 88
2018-05-21 03:00:00 15.4 5 Sudeste 13 Sudeste 0 -- -- 86
2018-05-21 02:00:00 16.1 4 Sudoeste 8 Sudoeste 0 -- -- 81
2018-05-21 01:00:00 16.2 5 Sudoeste 6 Sudoeste 0 -- -- 77
2018-05-21 00:00:00 16.5 4 Sur 10 Sudoeste 0 -- -- 77
2018-05-20 23:00:00 16.2 6 Oeste 9 Norte 0 -- -- 81
2018-05-20 22:00:00 17.1 5 Norte 9 Sudeste 0 -- -- 77
2018-05-20 21:00:00 18.4 6 Sudeste 25 Sur 0 -- -- 69
2018-05-20 20:00:00 19.2 22 Sudoeste 36 Sur 0 -- -- 68
2018-05-20 19:00:00 18.5 26 Sudoeste 44 Sur 0 -- -- 76
2018-05-20 18:00:00 22.4 8 Oeste 19 Norte 0 -- -- 52
2018-05-20 17:00:00 24.2 14 Noroeste 24 Noroeste 0 -- -- 52
2018-05-20 16:00:00 22.5 12 Norte 23 Noroeste 0 -- -- 56
2018-05-20 15:00:00 21.2 15 Norte 25 Norte 0 -- -- 65
2018-05-20 14:00:00 18.3 13 Norte 20 Norte 0 -- -- 80
2018-05-20 13:00:00 19.6 8 Norte 15 Norte 0 -- -- 72
2018-05-20 12:00:00 21.1 4 Nordeste 10 Nordeste 0 -- -- 66
2018-05-20 11:00:00 19.2 3 Este 12 Este 0 -- -- 76
2018-05-20 10:00:00 17.7 4 Sudeste 7 Sudeste 0 -- -- 82
2018-05-20 09:00:00 15.7 3 Sur 5 Sur 0 -- -- 92
2018-05-20 08:00:00 14.2 0 Calma 6 Este 0 -- -- 93
2018-05-20 07:00:00 14 5 Nordeste 10 Nordeste 0 -- -- 92
2018-05-20 06:00:00 14.2 2 Nordeste 10 Sudoeste 0 -- -- 91
2018-05-20 05:00:00 14.4 4 Oeste 9 Noroeste 0 -- -- 90
2018-05-20 04:00:00 14.5 8 Sudoeste 10 Sudoeste 0 -- -- 89
2018-05-20 03:00:00 14.4 10 Sur 12 Sur 0 -- -- 88
2018-05-20 02:00:00 14.8 10 Sur 17 Sur 0 -- -- 87
2018-05-20 01:00:00 15.6 9 Sur 12 Sur 0.2 -- -- 86
2018-05-20 00:00:00 15.9 7 Sur 10 Sur 0 -- -- 84
2018-05-19 23:00:00 16.1 9 Noroeste 19 Oeste 0 -- -- 85
2018-05-19 22:00:00 16.4 13 Noroeste 18 Noroeste 0 -- -- 86
2018-05-19 21:00:00 17.2 15 Noroeste 21 Noroeste 0 -- -- 84
2018-05-19 20:00:00 17.6 14 Sur 22 Sudoeste 0.2 -- -- 81
2018-05-19 19:00:00 17.8 11 Sur 25 Este 1.6 -- -- 80
2018-05-19 18:00:00 18.2 15 Este 37 Este 2.8 -- -- 77
2018-05-19 17:00:00 27.6 10 Noroeste 18 Noroeste 0 -- -- 34
2018-05-19 16:00:00 26.9 7 Oeste 31 Norte 0 -- -- 35
2018-05-19 15:00:00 27.5 7 Sudoeste 20 Este 0 -- -- 34
2018-05-19 14:00:00 26.8 8 Este 19 Nordeste 0 -- -- 38
2018-05-19 13:00:00 26 10 Nordeste 21 Este 0 -- -- 40
2018-05-19 12:00:00 24.3 7 Nordeste 19 Este 0 -- -- 47
2018-05-19 11:00:00 22.4 8 Este 19 Este 0 -- -- 52
2018-05-19 10:00:00 19.7 8 Este 14 Sudeste 0 -- -- 61
2018-05-19 09:00:00 17 6 Este 13 Este 0 -- -- 70
2018-05-19 08:00:00 14.4 4 Este 9 Nordeste 0 -- -- 76
2018-05-19 07:00:00 15 6 Este 15 Este 0 -- -- 72
2018-05-19 06:00:00 15.3 6 Este 12 Este 0 -- -- 75
2018-05-19 05:00:00 15.5 4 Este 8 Este 0 -- -- 81
2018-05-19 04:00:00 15.6 5 Este 10 Este 0 -- -- 82
2018-05-19 03:00:00 15.4 6 Este 9 Este 0 -- -- 83
2018-05-19 02:00:00 15.9 3 Nordeste 8 Nordeste 0 -- -- 81
2018-05-19 01:00:00 17 3 Norte 6 Nordeste 0 -- -- 78
2018-05-19 00:00:00 17.2 2 Este 13 Norte 0 -- -- 78
2018-05-18 23:00:00 18 9 Norte 16 Norte 0 -- -- 71
2018-05-18 22:00:00 18.2 9 Norte 30 Noroeste 0 -- -- 74
2018-05-18 21:00:00 20.1 3 Sudoeste 21 Sur 0 -- -- 62
2018-05-18 20:00:00 21.3 15 Sudoeste 19 Sudoeste 0 -- -- 55
2018-05-18 19:00:00 24.1 9 Sur 32 Sudeste 0 -- -- 50
2018-05-18 18:00:00 23.7 16 Este 40 Este 0 -- -- 53
2018-05-18 17:00:00 28 6 Nordeste 20 Norte 0 -- -- 32
2018-05-18 16:00:00 25.6 14 Noroeste 30 Noroeste 0 -- -- 41
2018-05-18 15:00:00 24.8 20 Noroeste 28 Noroeste 0 -- -- 48
2018-05-18 14:00:00 26.6 5 Este 28 Este 0 -- -- 34
2018-05-18 13:00:00 25.6 14 Este 28 Este 0 -- -- 37
2018-05-18 12:00:00 23.8 7 Este 18 Este 0 -- -- 48
2018-05-18 11:00:00 21.9 7 Nordeste 19 Norte 0 -- -- 57
2018-05-18 10:00:00 20 10 Norte 17 Norte 0 -- -- 66
2018-05-18 09:00:00 17.9 5 Norte 10 Nordeste 0 -- -- 75
2018-05-18 08:00:00 14.8 4 Este 9 Sudeste 0 -- -- 80
2018-05-18 07:00:00 14.7 5 Sudeste 6 Sudeste 0 -- -- 82
2018-05-18 06:00:00 15.5 4 Sudeste -- -- 0 -- -- 85
2018-05-18 05:00:00 16 4 Sudoeste 5 Sudoeste 0 -- -- 83
2018-05-18 04:00:00 16.3 0 Calma 6 Oeste 0 -- -- 81
2018-05-18 03:00:00 16.5 4 Oeste 7 Oeste 0 -- -- 78
2018-05-18 02:00:00 16.8 5 Sudoeste 9 Sudoeste 0 -- -- 75
2018-05-18 01:00:00 17 7 Sudoeste 14 Sudoeste 0 -- -- 74
2018-05-18 00:00:00 18.1 11 Oeste 21 Oeste 0 -- -- 71
2018-05-17 23:00:00 19.5 11 Oeste 31 Oeste 0 -- -- 63
2018-05-17 22:00:00 20.9 14 Sudoeste 35 Oeste 0 -- -- 56
2018-05-17 21:00:00 23.4 28 Oeste 39 Sudoeste 0 -- -- 49
2018-05-17 20:00:00 26.9 11 Sudoeste 16 Sudoeste 0 -- -- 29
2018-05-17 19:00:00 29.2 6 Nordeste 16 Norte 0 -- -- 22
2018-05-17 18:00:00 29.5 6 Oeste 16 Este 0 -- -- 22
2018-05-17 17:00:00 29.1 9 Nordeste 22 Norte 0 -- -- 24
2018-05-17 16:00:00 28.5 8 Nordeste 21 Nordeste 0 -- -- 25
2018-05-17 15:00:00 27.4 14 Norte 25 Norte 0 -- -- 28
2018-05-17 14:00:00 26 8 Norte 24 Noroeste 0 -- -- 34
2018-05-17 13:00:00 25.1 12 Norte 22 Norte 0 -- -- 36
2018-05-17 12:00:00 23.8 8 Este 20 Nordeste 0 -- -- 38
2018-05-17 11:00:00 22 10 Este 21 Este 0 -- -- 42
2018-05-17 10:00:00 20.4 9 Nordeste 18 Nordeste 0 -- -- 50
2018-05-17 09:00:00 18 7 Este 13 Este 0 -- -- 57
2018-05-17 08:00:00 13.1 7 Este 12 Este 0 -- -- 69
2018-05-17 07:00:00 13.2 5 Este 14 Nordeste 0 -- -- 71
2018-05-17 06:00:00 14.4 8 Nordeste 13 Nordeste 0 -- -- 67
2018-05-17 05:00:00 14.3 6 Este 9 Nordeste 0 -- -- 66
2018-05-17 04:00:00 15.8 5 Sudeste 9 Sudeste 0 -- -- 64
2018-05-17 03:00:00 16.1 5 Sudeste 12 Sudeste 0 -- -- 65
2018-05-17 02:00:00 16.9 10 Sudoeste 13 Sur 0 -- -- 63
2018-05-17 01:00:00 17.5 7 Sur 16 Sur 0 -- -- 63
2018-05-17 00:00:00 18.9 13 Sudoeste 27 Sur 0 -- -- 57
2018-05-16 23:00:00 20.7 18 Sur 29 Sur 0 -- -- 47
2018-05-16 22:00:00 22.1 12 Sudeste 21 Sudeste 0 -- -- 42
2018-05-16 21:00:00 26 10 Sudeste 25 Sur 0 -- -- 35
2018-05-16 20:00:00 29.7 5 Norte 18 Norte 0 -- -- 28
2018-05-16 19:00:00 29.7 4 Este 21 Nordeste 0 -- -- 28
2018-05-16 18:00:00 29.5 8 Este 23 Nordeste 0 -- -- 29
2018-05-16 17:00:00 29.2 7 Este 20 Este 0 -- -- 30
2018-05-16 16:00:00 28.7 9 Este 37 Este 0 -- -- 31
2018-05-16 15:00:00 27.8 14 Sudeste 28 Este 0 -- -- 32
2018-05-16 14:00:00 27.3 10 Este 26 Este 0 -- -- 33
2018-05-16 13:00:00 25.9 13 Este 30 Este 0 -- -- 34
2018-05-16 12:00:00 24.4 12 Este 24 Este 0 -- -- 37
2018-05-16 11:00:00 22.9 14 Este 37 Este 0 -- -- 38
2018-05-16 10:00:00 20.6 14 Este 26 Este 0 -- -- 41
2018-05-16 09:00:00 17.5 12 Este 22 Este 0 -- -- 51
2018-05-16 08:00:00 12.9 6 Este 11 Este 0 -- -- 64
2018-05-16 07:00:00 12.4 5 Este 10 Este 0 -- -- 66
2018-05-16 06:00:00 13.3 6 Este 15 Sudeste 0 -- -- 62
2018-05-16 05:00:00 14.4 9 Sudeste 14 Sudeste 0 -- -- 58
2018-05-16 04:00:00 15.9 7 Sudeste 14 Sur 0 -- -- 56
2018-05-16 03:00:00 15.5 7 Sudeste 15 Sudeste 0 -- -- 58
2018-05-16 02:00:00 16.4 6 Sudeste 12 Sudeste 0 -- -- 51
2018-05-16 01:00:00 17.3 6 Sudeste 14 Este 0 -- -- 48
2018-05-16 00:00:00 19.8 6 Este 10 Este 0 -- -- 40
2018-05-15 23:00:00 22.1 4 Nordeste 8 Nordeste 0 -- -- 35
2018-05-15 22:00:00 24 6 Norte 12 Norte 0 -- -- 32
2018-05-15 21:00:00 27.9 0 Calma 13 Este 0 -- -- 27
2018-05-15 20:00:00 28.5 5 Nordeste 12 Este 0 -- -- 26
2018-05-15 19:00:00 28.7 5 Este 16 Este 0 -- -- 24
2018-05-15 18:00:00 28.9 7 Nordeste 24 Nordeste 0 -- -- 24
2018-05-15 17:00:00 29 5 Este 23 Nordeste 0 -- -- 25
2018-05-15 16:00:00 28.5 9 Este 22 Este 0 -- -- 26
2018-05-15 15:00:00 27.5 6 Sudeste 22 Este 0 -- -- 27
2018-05-15 14:00:00 26.8 10 Este 23 Este 0 -- -- 28
2018-05-15 13:00:00 25.6 12 Nordeste 31 Este 0 -- -- 31
2018-05-15 12:00:00 24 14 Este 31 Este 0 -- -- 34
2018-05-15 11:00:00 21.9 15 Nordeste 35 Nordeste 0 -- -- 37
2018-05-15 10:00:00 19.3 14 Nordeste 28 Nordeste 0 -- -- 44
2018-05-15 09:00:00 16.9 9 Nordeste 19 Nordeste 0 -- -- 53
2018-05-15 08:00:00 12.7 5 Nordeste 13 Este 0 -- -- 68
2018-05-15 07:00:00 12.7 4 Nordeste 13 Nordeste 0 -- -- 66
2018-05-15 06:00:00 12.7 5 Nordeste 11 Nordeste 0 -- -- 67
2018-05-15 05:00:00 13.4 4 Nordeste 13 Este 0 -- -- 66
2018-05-15 04:00:00 14.1 5 Nordeste 17 Nordeste 0 -- -- 64
2018-05-15 03:00:00 14.2 7 Nordeste 13 Nordeste 0 -- -- 64
2018-05-15 02:00:00 15.2 5 Este 12 Este 0 -- -- 61
2018-05-15 01:00:00 16.6 4 Nordeste 14 Nordeste 0 -- -- 57
2018-05-15 00:00:00 17.9 6 Nordeste 14 Norte 0 -- -- 53
2018-05-14 23:00:00 19.9 6 Nordeste 16 Nordeste 0 -- -- 48
2018-05-14 22:00:00 21 7 Nordeste 18 Nordeste 0 -- -- 45
2018-05-14 21:00:00 23.8 11 Norte 27 Norte 0 -- -- 38
2018-05-14 20:00:00 25.3 13 Norte 27 Norte 0 -- -- 34
2018-05-14 19:00:00 27.1 15 Noroeste 27 Norte 0 -- -- 31
2018-05-14 18:00:00 27.3 9 Nordeste 25 Noroeste 0 -- -- 30
2018-05-14 17:00:00 26.5 4 Nordeste 25 Nordeste 0 -- -- 30
2018-05-14 16:00:00 26.2 12 Norte 23 Norte 0 -- -- 30
2018-05-14 15:00:00 25 6 Este 27 Norte 0 -- -- 28
2018-05-14 14:00:00 23.8 9 Nordeste 22 Norte 0 -- -- 29
2018-05-14 13:00:00 23.2 10 Nordeste 22 Nordeste 0 -- -- 30
2018-05-14 12:00:00 21.1 11 Nordeste 24 Nordeste 0 -- -- 36
2018-05-14 11:00:00 19.5 9 Nordeste 20 Nordeste 0 -- -- 41
2018-05-14 10:00:00 17.4 8 Nordeste 19 Nordeste 0 -- -- 48
2018-05-14 09:00:00 15.3 6 Nordeste 14 Nordeste 0 -- -- 54
2018-05-14 08:00:00 11.3 5 Nordeste 12 Nordeste 0 -- -- 65
2018-05-14 07:00:00 11.4 3 Este 9 Nordeste 0 -- -- 61
2018-05-14 06:00:00 11.7 4 Este 6 Este 0 -- -- 60
2018-05-14 05:00:00 12.6 3 Este 5 Nordeste 0 -- -- 55
2018-05-14 04:00:00 13.5 3 Nordeste 11 Nordeste 0 -- -- 52
2018-05-14 03:00:00 14.1 6 Nordeste 13 Nordeste 0 -- -- 49
2018-05-14 02:00:00 14.8 8 Norte 17 Norte 0 -- -- 45
2018-05-14 01:00:00 15 11 Norte 18 Norte 0 -- -- 43
2018-05-11 20:00:00 -- -- -- -- -- -- -- -- --
2018-05-11 19:00:00 24.3 18 Oeste 31 Oeste 0 -- -- 47
2018-05-11 18:00:00 24.8 17 Oeste 32 Oeste 0 -- -- 49
2018-05-11 17:00:00 24.4 21 Sudoeste 36 Oeste 0 -- -- 52
2018-05-11 16:00:00 23.9 16 Sudoeste 32 Sudoeste 0 -- -- 54
2018-05-11 15:00:00 23.3 15 Oeste 26 Sudoeste 0 -- -- 55
2018-05-11 14:00:00 22.2 9 Oeste 22 Sudoeste 0 -- -- 59
2018-05-11 13:00:00 21.3 9 Oeste 18 Sudoeste 0 -- -- 60
2018-05-11 12:00:00 19.4 8 Oeste 15 Sudoeste 0 -- -- 66
2018-05-11 11:00:00 17.7 10 Sur 18 Sudoeste 0 -- -- 71
2018-05-11 10:00:00 15.8 5 Oeste 10 Oeste 0 -- -- 79
2018-05-11 09:00:00 13.5 3 Norte 5 Noroeste 0 -- -- 90
2018-05-11 08:00:00 11.9 4 Sudoeste 9 Sur 0 -- -- 93
2018-05-11 07:00:00 11.3 8 Sur 12 Sur 0 -- -- 92
2018-05-11 06:00:00 11.9 10 Sur 15 Sur 0 -- -- 92
2018-05-11 05:00:00 12.2 9 Sur 13 Sur 0 -- -- 90
2018-05-11 04:00:00 12.6 11 Sur 14 Sur 0 -- -- 88
2018-05-11 03:00:00 13.1 5 Sur 9 Sudoeste 0 -- -- 84
2018-05-11 02:00:00 13.7 6 Oeste 12 Noroeste 0 -- -- 82
2018-05-11 01:00:00 14 6 Oeste 11 Oeste 0 -- -- 82
2018-05-11 00:00:00 14.4 8 Oeste 14 Oeste 0 -- -- 81
2018-05-10 23:00:00 14.7 11 Sudoeste 17 Sudoeste 0 -- -- 80
2018-05-10 22:00:00 16 11 Sudoeste 18 Sudoeste 0 -- -- 75
2018-05-10 21:00:00 18.9 13 Sudoeste 26 Sudoeste 0 -- -- 65
2018-05-10 20:00:00 21.1 21 Sudoeste 30 Sudoeste 0 -- -- 57
2018-05-10 19:00:00 23 16 Sudoeste 30 Oeste 0 -- -- 49
2018-05-10 18:00:00 23.7 19 Sudoeste 28 Sudoeste 0 -- -- 47
2018-05-10 17:00:00 23.8 16 Sudoeste 30 Oeste 0 -- -- 46
2018-05-10 16:00:00 23.2 17 Oeste 32 Oeste 0 -- -- 49
2018-05-10 15:00:00 22.3 13 Oeste 27 Sudoeste 0 -- -- 51
2018-05-10 14:00:00 22 12 Sudoeste 26 Sudoeste 0 -- -- 52
2018-05-10 13:00:00 20.3 14 Sudoeste 22 Sudoeste 0 -- -- 60
2018-05-10 12:00:00 19.4 13 Oeste 21 Oeste 0 -- -- 63
2018-05-10 11:00:00 18.5 6 Oeste 17 Sur 0 -- -- 72
2018-05-10 10:00:00 16.3 9 Sudoeste 13 Sudoeste 0 -- -- 88
2018-05-10 09:00:00 15.2 8 Sudoeste 12 Sur 0 -- -- 92
2018-05-10 08:00:00 14.7 9 Sudoeste 13 Sudoeste 0 -- -- 93
2018-05-10 07:00:00 14.4 10 Sudoeste 19 Sudoeste 0 -- -- 91
2018-05-10 06:00:00 14.8 11 Sudoeste 20 Sudoeste 0 -- -- 89
2018-05-10 05:00:00 14.9 13 Sudoeste 22 Sudoeste 0 -- -- 89
2018-05-10 04:00:00 15 14 Sudoeste 25 Sur 0 -- -- 89
2018-05-10 03:00:00 15 19 Sudoeste 26 Sudoeste 0 -- -- 90
2018-05-10 02:00:00 15.3 14 Sudoeste 24 Sudoeste 0 -- -- 90
2018-05-10 01:00:00 15.4 15 Sudoeste 23 Sudoeste 0 -- -- 89
2018-05-10 00:00:00 15.3 13 Sudoeste 25 Sudoeste 0 -- -- 89
2018-05-09 23:00:00 16 18 Sudoeste 32 Oeste 0 -- -- 86
2018-05-09 22:00:00 16.5 18 Sudoeste 32 Sudoeste 0 -- -- 84
2018-05-09 21:00:00 18.4 21 Sudoeste 30 Sudoeste 0 -- -- 77
2018-05-09 20:00:00 19.1 18 Sudoeste 29 Sudoeste 0 -- -- 80
2018-05-09 19:00:00 18.6 16 Sudoeste 29 Sudoeste 0 -- -- 85
2018-05-09 18:00:00 17.9 20 Sudoeste 28 Sudoeste 0 -- -- 90
2018-05-09 17:00:00 17.2 16 Sudoeste 28 Sudoeste 0.2 -- -- 95
2018-05-09 16:00:00 17.3 19 Sudoeste 28 Sudoeste 0 -- -- 94
2018-05-09 15:00:00 17.9 16 Sudoeste 31 Oeste 0 -- -- 88
2018-05-09 14:00:00 19 16 Sudoeste 26 Sudoeste 0 -- -- 78
2018-05-09 13:00:00 18.4 13 Sudoeste 19 Sudoeste 0 -- -- 82
2018-05-09 12:00:00 17.5 14 Sudoeste 21 Sur 0 -- -- 83
2018-05-09 11:00:00 16.4 14 Sudoeste 24 Sudoeste 0 -- -- 89
2018-05-09 10:00:00 15.4 13 Sudoeste 22 Sur 0 -- -- 94
2018-05-09 09:00:00 14.9 12 Sudoeste 21 Sudoeste 0 -- -- 93
2018-05-09 08:00:00 15.1 14 Oeste 26 Oeste 0 -- -- 90
2018-05-09 07:00:00 14.8 20 Sudoeste 31 Sudoeste 0 -- -- 91
2018-05-09 06:00:00 15 16 Sudoeste 26 Sudoeste 0 -- -- 92
2018-05-09 05:00:00 15.1 15 Sudoeste 21 Sudoeste 0 -- -- 92
2018-05-09 04:00:00 15.1 14 Sudoeste 22 Sudoeste 0 -- -- 93
2018-05-09 03:00:00 15.3 12 Sudoeste 23 Sudoeste 0 -- -- 91
2018-05-09 02:00:00 15.8 7 Sudoeste 17 Sudoeste 0 -- -- 87
2018-05-09 01:00:00 16.1 8 Sudoeste 19 Sudoeste 0 -- -- 85
2018-05-09 00:00:00 16.8 12 Sudoeste 21 Sudoeste 0 -- -- 82
2018-05-08 23:00:00 17.5 14 Sudoeste 21 Sudoeste 0 -- -- 81
2018-05-08 22:00:00 18.5 11 Sudoeste 13 Sudoeste 0 -- -- 75
2018-05-08 21:00:00 19.4 7 Oeste 23 Noroeste 0 -- -- 69
2018-05-08 20:00:00 20.6 17 Noroeste 30 Noroeste 0 -- -- 66
2018-05-08 19:00:00 23.4 21 Noroeste 30 Noroeste 0 -- -- 63
2018-05-08 18:00:00 25.7 18 Noroeste 28 Noroeste 0 -- -- 48
2018-05-08 17:00:00 24.5 15 Oeste 23 Noroeste 0 -- -- 51
2018-05-08 16:00:00 25.1 16 Oeste 24 Sudoeste 0 -- -- 50
2018-05-08 15:00:00 25.6 15 Oeste 28 Oeste 0 -- -- 55
2018-05-08 14:00:00 24.4 9 Sudoeste 23 Oeste 0 -- -- 58
2018-05-08 13:00:00 22.7 12 Oeste 24 Sudoeste 0 -- -- 63
2018-05-08 12:00:00 21.7 11 Sudoeste 21 Sudoeste 0 -- -- 66
2018-05-08 11:00:00 19.2 9 Sudoeste 16 Sudoeste 0 -- -- 74
2018-05-08 10:00:00 16.9 10 Oeste 21 Oeste 0 -- -- 80
2018-05-08 09:00:00 15 5 Sudoeste 9 Sudoeste 0 -- -- 87
2018-05-08 08:00:00 13.5 4 Sudoeste 8 Sudoeste 0 -- -- 90
2018-05-08 07:00:00 13.4 6 Sudoeste 12 Sudoeste 0 -- -- 89
2018-05-08 06:00:00 13.6 9 Sudoeste 15 Sudoeste 0 -- -- 90
2018-05-08 05:00:00 13.5 12 Sudoeste 20 Sudoeste 0 -- -- 91
2018-05-08 04:00:00 13.7 15 Sudoeste 22 Sur 0 -- -- 90
2018-05-08 03:00:00 14.3 14 Sudoeste 18 Sur 0 -- -- 88
2018-05-08 02:00:00 14.7 14 Sur 19 Sudoeste 0 -- -- 84
2018-05-08 01:00:00 15.4 14 Sur 23 Sudoeste 0 -- -- 81
2018-05-08 00:00:00 16.7 16 Sudoeste 23 Sudoeste 0 -- -- 78
2018-05-07 23:00:00 18.4 15 Sudoeste 23 Oeste 0 -- -- 70
2018-05-07 22:00:00 19.8 14 Sudoeste 25 Oeste 0 -- -- 65
2018-05-07 21:00:00 22.5 17 Oeste 31 Oeste 0 -- -- 57
2018-05-07 20:00:00 25.4 21 Sudoeste 35 Sudoeste 0 -- -- 48
2018-05-07 19:00:00 26.9 20 Sudoeste 31 Sudoeste 0 -- -- 42
2018-05-07 18:00:00 27.8 13 Oeste 23 Sudoeste 0 -- -- 38
2018-05-07 17:00:00 27.8 8 Oeste 25 Oeste 0 -- -- 35
2018-05-07 16:00:00 27.3 7 Sur 18 Sur 0 -- -- 36
2018-05-07 15:00:00 26.6 5 Sudoeste 16 Sur 0 -- -- 38
2018-05-07 14:00:00 25.8 7 Noroeste 15 Este 0 -- -- 40
2018-05-07 13:00:00 24.5 6 Sudeste 16 Sudeste 0 -- -- 43
2018-05-07 12:00:00 23.4 8 Este 17 Este 0 -- -- 49
2018-05-07 11:00:00 21.9 9 Este 16 Este 0 -- -- 57
2018-05-07 10:00:00 19.5 7 Este 13 Este 0 -- -- 65
2018-05-07 09:00:00 15.8 6 Nordeste 12 Nordeste 0 -- -- 79
2018-05-07 08:00:00 13.4 3 Este 7 Este 0 -- -- 88
2018-05-07 07:00:00 13.2 5 Este 11 Nordeste 0 -- -- 87
2018-05-07 06:00:00 13.5 5 Nordeste 14 Este 0 -- -- 84
2018-05-07 05:00:00 14 8 Este 15 Este 0 -- -- 81
2018-05-07 04:00:00 14 4 Este 17 Este 0 -- -- 77
2018-05-07 03:00:00 14.4 5 Este 13 Sudeste 0 -- -- 73
2018-05-07 02:00:00 15.4 4 Este 8 Este 0 -- -- 69
2018-05-07 01:00:00 16.3 5 Este 14 Sudeste 0 -- -- 68
2018-05-07 00:00:00 17.5 9 Sudeste 15 Sudeste 0 -- -- 62
2018-05-06 23:00:00 17.7 6 Este 10 Este 0 -- -- 69
2018-05-06 22:00:00 18.8 6 Este 14 Este 0 -- -- 64
2018-05-06 21:00:00 20.7 6 Sudeste 20 Este 0 -- -- 55
2018-05-06 20:00:00 22 14 Este 26 Este 0 -- -- 53
2018-05-06 19:00:00 26.2 12 Sudeste 23 Este 0 -- -- 36
2018-05-06 18:00:00 27.3 10 Sudeste 25 Sur 0 -- -- 37
2018-05-06 17:00:00 26.7 9 Sur 18 Sudoeste 0 -- -- 39
2018-05-06 16:00:00 26.9 5 Oeste 32 Sudeste 0 -- -- 41
2018-05-06 15:00:00 26.1 7 Este 23 Este 0 -- -- 43
2018-05-06 14:00:00 25.1 5 Nordeste 18 Sudeste 0 -- -- 45
2018-05-06 13:00:00 23.8 7 Sudeste 19 Este 0 -- -- 46
2018-05-06 12:00:00 23.3 11 Este 28 Este 0 -- -- 49
2018-05-06 11:00:00 21.7 12 Este 26 Sudeste 0 -- -- 52
2018-05-06 10:00:00 19.2 11 Este 24 Sudeste 0 -- -- 56
2018-05-06 09:00:00 17.1 12 Este 23 Sudeste 0 -- -- 63
2018-05-06 08:00:00 13.1 9 Este 14 Este 0 -- -- 75
2018-05-06 07:00:00 14.1 6 Este 17 Este 0 -- -- 67
2018-05-06 06:00:00 14.1 8 Sudeste 13 Este 0 -- -- 69
2018-05-06 05:00:00 15.5 6 Este 11 Sudeste 0 -- -- 74
2018-05-06 04:00:00 15.2 6 Sudeste 8 Sudeste 0 -- -- 78
2018-05-06 03:00:00 15.6 5 Este 12 Sur 0 -- -- 78
2018-05-06 02:00:00 16.5 13 Sur 20 Sudoeste 0 -- -- 74
2018-05-06 01:00:00 17.5 13 Sur 21 Sur 0 -- -- 70
2018-05-06 00:00:00 18.1 15 Sur 22 Sur 0 -- -- 67
2018-05-05 23:00:00 19.4 10 Sur 18 Sudeste 0 -- -- 59
2018-05-05 22:00:00 22.9 3 Sudeste 8 Sudeste 0 -- -- 42
2018-05-05 21:00:00 25.9 0 Calma 5 Norte 0 -- -- 36
2018-05-05 20:00:00 26.4 3 Nordeste 10 Nordeste 0 -- -- 34
2018-05-05 19:00:00 27.1 4 Norte 14 Este 0 -- -- 34
2018-05-05 18:00:00 27.2 6 Norte 15 Este 0 -- -- 32
2018-05-05 17:00:00 25.9 5 Norte 13 Nordeste 0 -- -- 37
2018-05-05 16:00:00 26.4 7 Este 16 Este 0 -- -- 36
2018-05-05 15:00:00 25.6 8 Este 19 Sur 0 -- -- 38
2018-05-05 14:00:00 24.4 5 Norte 15 Este 0 -- -- 42
2018-05-05 13:00:00 23.6 4 Sudeste 16 Este 0 -- -- 46
2018-05-05 12:00:00 21.7 6 Este 17 Este 0 -- -- 53
2018-05-05 11:00:00 19.6 8 Este 19 Este 0 -- -- 60
2018-05-05 10:00:00 17.1 7 Nordeste 14 Este 0 -- -- 75
2018-05-05 09:00:00 13.7 6 Nordeste 12 Nordeste 0 -- -- 90
2018-05-05 08:00:00 10.8 4 Este 11 Nordeste 0 -- -- 90
2018-05-05 07:00:00 11 5 Nordeste 9 Norte 0 -- -- 87
2018-05-05 06:00:00 11.6 3 Este 9 Sudeste 0 -- -- 86
2018-05-05 05:00:00 12.3 4 Sudeste 9 Sudeste 0 -- -- 86
2018-05-05 04:00:00 12.9 5 Sur 12 Sur 0 -- -- 87
2018-05-05 03:00:00 13.7 5 Sudoeste 8 Sudoeste 0 -- -- 87
2018-05-05 02:00:00 13.4 7 Sudoeste 10 Sur 0 -- -- 85
2018-05-05 01:00:00 13.2 9 Sur 13 Sur 0 -- -- 85
2018-05-05 00:00:00 13.5 10 Sudoeste 13 Sudoeste 0 -- -- 83
2018-05-04 23:00:00 14.4 5 Sudoeste 9 Oeste 0 -- -- 79
2018-05-04 22:00:00 14.3 8 Oeste 15 Sudoeste 0 -- -- 80
2018-05-04 21:00:00 15.7 12 Sudoeste 35 Sudoeste 0 -- -- 74
2018-05-04 20:00:00 18.2 27 Sudoeste 41 Sudoeste 0 -- -- 61
2018-05-04 19:00:00 21.4 28 Sudoeste 45 Sur 0 -- -- 49
2018-05-04 18:00:00 24.6 4 Este 13 Este 0 -- -- 32
2018-05-04 17:00:00 24.7 6 Nordeste 18 Nordeste 0 -- -- 31
2018-05-04 16:00:00 24.5 7 Noroeste 24 Norte 0 -- -- 35
2018-05-04 15:00:00 23.8 7 Nordeste 17 Nordeste 0 -- -- 39
2018-05-04 14:00:00 22.4 8 Norte 18 Este 0 -- -- 42
2018-05-04 13:00:00 21.8 9 Nordeste 19 Nordeste 0 -- -- 45
2018-05-04 12:00:00 20.5 8 Este 17 Este 0 -- -- 54
2018-05-04 11:00:00 18.9 6 Este 15 Nordeste 0 -- -- 60
2018-05-04 10:00:00 16.5 3 Nordeste 8 Nordeste 0 -- -- 75
2018-05-04 09:00:00 13.7 3 Este 8 Este 0 -- -- 86
2018-05-04 08:00:00 12 5 Este 7 Este 0 -- -- 87
2018-05-04 07:00:00 12.8 4 Sudoeste 7 Sudoeste 0 -- -- 86
2018-05-04 06:00:00 12.7 3 Oeste 10 Sudoeste 0 -- -- 86
2018-05-04 05:00:00 12.4 9 Sudoeste 12 Sudoeste 0 -- -- 85
2018-05-04 04:00:00 12.6 8 Sudoeste 16 Sudoeste 0 -- -- 85
2018-05-04 03:00:00 13 12 Sudoeste 20 Sur 0 -- -- 83
2018-05-04 02:00:00 13.3 13 Sur 19 Sur 0 -- -- 84
2018-05-04 01:00:00 14 13 Sudoeste 24 Sudoeste 0 -- -- 82
2018-05-04 00:00:00 14.6 13 Sudoeste 24 Sur 0 -- -- 78
2018-05-03 23:00:00 15.9 13 Sur 21 Sur 0 -- -- 71
2018-05-03 22:00:00 17.4 13 Sudoeste 20 Sudoeste 0 -- -- 72
2018-05-03 21:00:00 19.8 10 Oeste 19 Oeste 0 -- -- 56
2018-05-03 20:00:00 22.6 15 Noroeste 30 Noroeste 0 -- -- 45
2018-05-03 19:00:00 24.2 13 Noroeste 25 Oeste 0 -- -- 38
2018-05-03 18:00:00 24.8 11 Oeste 24 Noroeste 0 -- -- 38
2018-05-03 17:00:00 24 10 Noroeste 19 Noroeste 0 -- -- 40
2018-05-03 16:00:00 23.4 9 Noroeste 21 Noroeste 0 -- -- 39
2018-05-03 15:00:00 22.9 5 Nordeste 21 Norte 0 -- -- 40
2018-05-03 14:00:00 21.4 7 Noroeste 15 Noroeste 0 -- -- 43
2018-05-03 13:00:00 20.2 5 Nordeste 14 Norte 0 -- -- 47
2018-05-03 12:00:00 18.5 6 Norte 13 Norte 0 -- -- 55
2018-05-03 11:00:00 16.7 5 Norte 12 Norte 0 -- -- 58
2018-05-03 10:00:00 14.7 4 Nordeste 11 Este 0 -- -- 69
2018-05-03 09:00:00 12.2 3 Nordeste 6 Nordeste 0 -- -- 80
2018-05-03 08:00:00 9.9 0 Calma 3 Sudoeste 0 -- -- 85
2018-05-03 07:00:00 10 3 Sur 7 Sur 0 -- -- 85
2018-05-03 06:00:00 9.9 5 Sur 9 Sudoeste 0 -- -- 85
2018-05-03 05:00:00 9.5 7 Sudoeste 10 Sudoeste 0 -- -- 85
2018-05-03 04:00:00 9.4 9 Sudoeste 13 Sudoeste 0 -- -- 84
2018-05-03 03:00:00 9.8 9 Sudoeste 15 Sudoeste 0 -- -- 83
2018-05-03 02:00:00 9.6 12 Sudoeste 15 Sudoeste 0 -- -- 83
2018-05-03 01:00:00 10.3 14 Sudoeste 18 Sur 0 -- -- 80
2018-05-03 00:00:00 10.8 9 Sudoeste 15 Sudoeste 0 -- -- 76
2018-05-02 23:00:00 11.6 9 Sudoeste 20 Sudoeste 0 -- -- 69
2018-05-02 22:00:00 13.2 15 Sudoeste 29 Sudoeste 0 -- -- 61
2018-05-02 21:00:00 15.8 17 Sudoeste 26 Sudoeste 0 -- -- 53
2018-05-02 20:00:00 19 17 Sudoeste 29 Sudoeste 0 -- -- 46
2018-05-02 19:00:00 20.4 12 Oeste 28 Oeste 0 -- -- 39
2018-05-02 18:00:00 20.7 15 Oeste 29 Oeste 0 -- -- 40
2018-05-02 17:00:00 21 15 Oeste 28 Sudoeste 0 -- -- 37
2018-05-02 16:00:00 19.2 16 Noroeste 27 Oeste 0 -- -- 44
2018-05-02 15:00:00 18.6 9 Noroeste 22 Oeste 0 -- -- 44
2018-05-02 14:00:00 18.4 8 Noroeste 19 Norte 0 -- -- 45
2018-05-02 13:00:00 17.2 7 Noroeste 15 Nordeste 0 -- -- 49
2018-05-02 12:00:00 16.1 5 Norte 13 Norte 0 -- -- 51
2018-05-02 11:00:00 14.1 4 Nordeste 10 Este 0 -- -- 63
2018-05-02 10:00:00 12.8 5 Este 13 Este 0 -- -- 76
2018-05-02 09:00:00 9.3 0 Calma 7 Nordeste 0 -- -- 93
2018-05-02 08:00:00 7 6 Nordeste 8 Sudoeste 0 -- -- 91
2018-05-02 07:00:00 7.7 8 Sudoeste 10 Sur 0 -- -- 89
2018-05-02 06:00:00 8.3 3 Sur 9 Sur 0 -- -- 90
2018-05-02 05:00:00 8.2 6 Sur 12 Sur 0 -- -- 90
2018-05-02 04:00:00 8.3 10 Sur 13 Sur 0 -- -- 91
2018-05-02 03:00:00 8.7 10 Sudoeste 16 Sudoeste 0 -- -- 90
2018-05-02 02:00:00 8.6 11 Sudoeste 15 Sudoeste 0 -- -- 91
2018-05-02 01:00:00 8.9 12 Sudoeste 14 Sudoeste 0 -- -- 88
2018-05-02 00:00:00 9.4 11 Sudoeste 16 Sur 0 -- -- 86
2018-05-01 23:00:00 10.2 9 Sudoeste 13 Sudoeste 0 -- -- 80
2018-05-01 22:00:00 11.6 7 Sudoeste 12 Sudoeste 0 -- -- 69
2018-05-01 21:00:00 14.1 6 Oeste 10 Oeste 0 -- -- 65
2018-05-01 20:00:00 15.7 7 Oeste 18 Noroeste 0 -- -- 54
2018-05-01 19:00:00 15.8 11 Noroeste 21 Norte 0 -- -- 53
2018-05-01 18:00:00 14.7 4 Norte 26 Norte 0 -- -- 60
2018-05-01 17:00:00 14.2 3 Noroeste 15 Norte 0 -- -- 61
2018-05-01 16:00:00 11.6 12 Norte 41 Norte 1 -- -- 83
2018-05-01 15:00:00 14.2 19 Noroeste 30 Noroeste 0 -- -- 60
2018-05-01 14:00:00 16.9 17 Oeste 35 Oeste 0 -- -- 52
2018-05-01 13:00:00 16.1 18 Sudoeste 27 Sudoeste 0 -- -- 62
2018-05-01 12:00:00 14 11 Oeste 16 Oeste 0 -- -- 70
2018-05-01 11:00:00 11.3 4 Sudoeste 9 Sur 0 -- -- 86
2018-05-01 10:00:00 9.5 4 Sur 12 Sudoeste 0 -- -- 95
2018-05-01 09:00:00 8.3 10 Sur 15 Sur 0 -- -- 95
2018-05-01 08:00:00 7.7 10 Sur 16 Sur 0 -- -- 94
2018-05-01 07:00:00 7.8 4 Sur 10 Sudoeste 0 -- -- 94
2018-05-01 06:00:00 7.9 9 Sur 14 Sudoeste 0 -- -- 93
2018-05-01 05:00:00 8.3 9 Sudoeste 12 Sudoeste 0 -- -- 92
2018-05-01 04:00:00 8.9 10 Sudoeste 12 Sudoeste 0 -- -- 91
2018-05-01 03:00:00 9.1 10 Sudoeste 12 Sudoeste 0 -- -- 89
2018-05-01 02:00:00 9.7 8 Sudoeste 13 Sudoeste 0 -- -- 87
2018-05-01 01:00:00 10.3 9 Sudoeste 14 Sudoeste 0 -- -- 86
2018-05-01 00:00:00 10.5 10 Sudoeste 22 Sudoeste 0 -- -- 84
2018-04-30 23:00:00 11 18 Sudoeste 26 Sudoeste 0 -- -- 78
2018-04-30 22:00:00 11.9 13 Sudoeste 19 Sudoeste 0 -- -- 76
2018-04-30 21:00:00 12.8 12 Sudoeste 19 Sudoeste 0 -- -- 70
2018-04-30 20:00:00 15.9 12 Sudoeste 23 Sudoeste 0 -- -- 56
2018-04-30 19:00:00 16.1 15 Oeste 26 Oeste 0 -- -- 51
2018-04-30 18:00:00 15.6 22 Noroeste 30 Noroeste 0 -- -- 53
2018-04-30 17:00:00 16.5 12 Oeste 26 Oeste 0 -- -- 51
2018-04-30 16:00:00 16.6 9 Oeste 26 Noroeste 0 -- -- 48
2018-04-30 15:00:00 15.5 13 Noroeste 24 Oeste 0 -- -- 53
2018-04-30 14:00:00 14.8 7 Oeste 19 Oeste 0 -- -- 55
2018-04-30 13:00:00 15 7 Oeste 19 Noroeste 0 -- -- 48
2018-04-30 12:00:00 14.4 5 Sudoeste 15 Sudoeste 0 -- -- 55
2018-04-30 11:00:00 12.6 5 Sudoeste 10 Sudoeste 0 -- -- 66
2018-04-30 10:00:00 10.1 3 Sudoeste 10 Sudoeste 0 -- -- 80
2018-04-30 09:00:00 7.8 8 Sur 10 Sur 0 -- -- 90
2018-04-30 08:00:00 6.8 0 Calma 8 Oeste 0 -- -- 86
2018-04-30 07:00:00 7 6 Oeste 8 Oeste 0 -- -- 85
2018-04-30 06:00:00 7.3 5 Sudoeste 8 Oeste 0 -- -- 83
2018-04-30 05:00:00 8 4 Oeste 7 Sudoeste 0 -- -- 81
2018-04-30 04:00:00 8.6 5 Sudoeste 9 Oeste 0 -- -- 82
2018-04-30 03:00:00 9.1 4 Sudoeste 9 Sudoeste 0 -- -- 81
2018-04-30 02:00:00 9.3 2 Oeste 13 Sudoeste 0 -- -- 90
2018-04-30 01:00:00 9.6 13 Sur 15 Sur 0 -- -- 89
2018-04-30 00:00:00 10.3 9 Sudoeste 21 Sudoeste 0 -- -- 86
2018-04-29 23:00:00 11.4 15 Sudoeste 23 Sudoeste 0 -- -- 84
2018-04-29 22:00:00 12 15 Sudoeste 22 Sudoeste 0 -- -- 80
2018-04-29 21:00:00 13.4 14 Sudoeste 38 Sudoeste 0 -- -- 73
2018-04-29 20:00:00 15.3 26 Sudoeste 47 Sudoeste 0 -- -- 64
2018-04-29 19:00:00 15.3 22 Oeste 46 Oeste 0 -- -- 64
2018-04-29 18:00:00 17 32 Oeste 47 Oeste 0 -- -- 56
2018-04-29 17:00:00 17.9 32 Oeste 55 Oeste 0 -- -- 48
2018-04-29 16:00:00 17.3 30 Oeste 48 Sudoeste 0 -- -- 45
2018-04-29 15:00:00 17.6 32 Oeste 49 Oeste 0 -- -- 42
2018-04-29 14:00:00 17 26 Oeste 44 Sudoeste 0 -- -- 49
2018-04-29 13:00:00 15.1 28 Oeste 41 Oeste 0 -- -- 55
2018-04-29 12:00:00 13.6 24 Oeste 36 Oeste 0 -- -- 63
2018-04-29 11:00:00 12.3 23 Sudoeste 36 Oeste 0 -- -- 74
2018-04-29 10:00:00 10.9 20 Sudoeste 31 Sudoeste 0 -- -- 83
2018-04-29 09:00:00 8.1 13 Sudoeste 19 Sudoeste 0 -- -- 95
2018-04-29 08:00:00 6.5 5 Sur 13 Sudoeste 0 -- -- 93
2018-04-29 07:00:00 7 9 Sudoeste 25 Oeste 0 -- -- 91
2018-04-29 06:00:00 7.9 17 Oeste 28 Oeste 0 -- -- 90
2018-04-29 05:00:00 7.8 19 Sudoeste 26 Oeste 0 -- -- 93
2018-04-29 04:00:00 8.2 17 Sudoeste 25 Oeste 0 -- -- 91
2018-04-29 03:00:00 8.9 16 Oeste 31 Oeste 0 -- -- 89
2018-04-29 02:00:00 10 18 Sudoeste 25 Sudoeste 0 -- -- 91
2018-04-29 01:00:00 10.7 18 Sudoeste 28 Sudoeste 0.2 -- -- 90
2018-04-29 00:00:00 10.7 17 Sudoeste 35 Sudoeste 0 -- -- 91
2018-04-28 23:00:00 11.6 19 Sudoeste 40 Sudoeste 0 -- -- 85
2018-04-28 22:00:00 12.4 16 Sudoeste 28 Sudoeste 0 -- -- 74
2018-04-28 21:00:00 13.5 18 Sudoeste 41 Sudoeste 0 -- -- 66
2018-04-28 20:00:00 15.7 29 Sudoeste 43 Sudoeste 0 -- -- 58
2018-04-28 19:00:00 16.8 31 Sudoeste 44 Sudoeste 0 -- -- 56
2018-04-28 18:00:00 17.5 23 Sudoeste 39 Sudoeste 0 -- -- 48
2018-04-28 17:00:00 19.3 26 Sudoeste 47 Sudoeste 0 -- -- 42
2018-04-28 16:00:00 19.1 23 Oeste 42 Oeste 0 -- -- 46
2018-04-28 15:00:00 18.9 24 Oeste 44 Sudoeste 0 -- -- 44
2018-04-28 14:00:00 18 26 Sudoeste 42 Sudoeste 0 -- -- 49
2018-04-28 13:00:00 17.4 19 Oeste 36 Oeste 0 -- -- 55
2018-04-28 12:00:00 16 14 Sudoeste 29 Sudoeste 0 -- -- 70
2018-04-28 11:00:00 15 14 Oeste 22 Oeste 0 -- -- 69
2018-04-28 10:00:00 12.9 12 Sudoeste 22 Sudoeste 0 -- -- 96
2018-04-28 09:00:00 11.9 13 Sudoeste 23 Sudoeste 0 -- -- 96
2018-04-28 08:00:00 11.6 14 Sudoeste 22 Sudoeste 0 -- -- 96
2018-04-28 07:00:00 11.6 12 Sur 22 Sudoeste 0 -- -- 95
2018-04-28 06:00:00 11.6 13 Sudoeste 17 Sudoeste 0 -- -- 93
2018-04-28 05:00:00 12.3 13 Sur 15 Sur 0 -- -- 93
2018-04-28 04:00:00 12.7 14 Sudoeste 23 Sur 0 -- -- 92
2018-04-28 03:00:00 13.2 12 Sur 17 Sudoeste 0 -- -- 90
2018-04-28 02:00:00 13.9 13 Sudoeste 20 Sudoeste 0 -- -- 89
2018-04-28 01:00:00 14.3 14 Sudoeste 21 Sudoeste 0 -- -- 88
2018-04-28 00:00:00 14.8 14 Sur 23 Sudoeste 0 -- -- 87
2018-04-27 23:00:00 15.8 19 Sudoeste 33 Sudoeste 0 -- -- 84
2018-04-27 22:00:00 17.1 19 Sudoeste 27 Sur 0 -- -- 79
2018-04-27 21:00:00 19.6 17 Sudoeste 26 Sudoeste 0 -- -- 69
2018-04-27 20:00:00 22.7 19 Sudoeste 29 Sudoeste 0 -- -- 61
2018-04-27 19:00:00 24.3 18 Sudoeste 30 Sudoeste 0 -- -- 57
2018-04-27 18:00:00 24.6 19 Sudoeste 29 Sudoeste 0 -- -- 53
2018-04-27 17:00:00 24.3 19 Sudoeste 29 Sudoeste 0 -- -- 56
2018-04-27 16:00:00 23.7 17 Sudoeste 30 Sudoeste 0 -- -- 60
2018-04-27 15:00:00 22.5 12 Oeste 22 Sudoeste 0 -- -- 67
2018-04-27 14:00:00 21.5 12 Oeste 24 Sudoeste 0 -- -- 70
2018-04-27 13:00:00 20 11 Oeste 18 Sudoeste 0 -- -- 75
2018-04-27 12:00:00 19.3 9 Sudoeste 15 Sudoeste 0 -- -- 76
2018-04-27 11:00:00 17.6 6 Sudoeste 14 Sudoeste 0 -- -- 83
2018-04-27 10:00:00 16.1 5 Oeste 8 Sudeste 0 -- -- 94
2018-04-27 09:00:00 15 3 Sudeste 9 Sur 0 -- -- 97
2018-04-27 08:00:00 14.4 4 Sur 11 Sur 0 -- -- 96
2018-04-27 07:00:00 13.7 4 Sudeste 10 Sur 0 -- -- 95
2018-04-27 06:00:00 14.1 8 Sur 13 Oeste 0 -- -- 95
2018-04-27 05:00:00 14.7 10 Oeste 19 Oeste 0 -- -- 95
2018-04-27 04:00:00 15 12 Oeste 19 Oeste 0 -- -- 95
2018-04-27 03:00:00 15.2 12 Oeste 20 Oeste 0 -- -- 94
2018-04-27 02:00:00 15.6 14 Oeste 26 Sudoeste 0 -- -- 93
2018-04-27 01:00:00 16.2 15 Sudoeste 25 Oeste 0 -- -- 91
2018-04-27 00:00:00 16.4 16 Oeste 26 Oeste 0 -- -- 92
2018-04-26 23:00:00 17.2 19 Sudoeste 27 Sudoeste 0 -- -- 90
2018-04-26 22:00:00 18 15 Sudoeste 26 Sudoeste 0 -- -- 89
2018-04-26 21:00:00 19.3 19 Sudoeste 36 Sudoeste 0 -- -- 86
2018-04-26 20:00:00 21.5 22 Sudoeste 35 Sudoeste 0 -- -- 78
2018-04-26 19:00:00 23.5 24 Sudoeste 40 Sudoeste 0 -- -- 70
2018-04-26 18:00:00 25.1 18 Oeste 25 Oeste 0 -- -- 67
2018-04-26 17:00:00 25.2 12 Oeste 22 Sudoeste 0 -- -- 61
2018-04-26 16:00:00 24.7 10 Oeste 18 Noroeste 0 -- -- 64
2018-04-26 15:00:00 23.7 6 Noroeste 14 Oeste 0 -- -- 64
2018-04-26 14:00:00 22.6 3 Norte 10 Este 0 -- -- 70
2018-04-26 13:00:00 21.1 3 Sudoeste 13 Nordeste 0 -- -- 74
2018-04-26 12:00:00 19.3 6 Norte 12 Norte 0 -- -- 78
2018-04-26 11:00:00 18.2 4 Nordeste 10 Nordeste 0 -- -- 82
2018-04-26 10:00:00 17.1 4 Norte 9 Noroeste 0 -- -- 93
2018-04-26 09:00:00 15.8 3 Norte 5 Este 0 -- -- 97
2018-04-26 08:00:00 14.8 2 Este 5 Nordeste 0 -- -- 97
2018-04-26 07:00:00 14.2 0 Calma 9 Sur 0 -- -- 96
2018-04-26 06:00:00 14 8 Sur 17 Sur 0 -- -- 96
2018-04-26 05:00:00 14.3 12 Sur 17 Sur 0 -- -- 95
2018-04-26 04:00:00 14.9 12 Sudoeste 18 Sudoeste 0 -- -- 95
2018-04-26 03:00:00 15.3 9 Sudoeste 15 Sudoeste 0 -- -- 94
2018-04-26 02:00:00 15.5 8 Sudoeste 21 Oeste 0 -- -- 92
2018-04-26 01:00:00 15.7 18 Oeste 41 Oeste 0.2 -- -- 93
2018-04-26 00:00:00 16.9 22 Oeste 33 Sudoeste 2.4 -- -- 93
2018-04-25 23:00:00 17.5 17 Sudoeste 30 Sudoeste 0 -- -- 90
2018-04-25 22:00:00 18.3 18 Sudoeste 28 Sudoeste 0 -- -- 86
2018-04-25 21:00:00 20.6 18 Sudoeste 26 Sudoeste 0 -- -- 82
2018-04-25 20:00:00 23.4 14 Sudoeste 26 Sudoeste 0 -- -- 63
2018-04-25 19:00:00 25 13 Sudoeste 20 Sudoeste 0 -- -- 55
2018-04-25 18:00:00 25.1 11 Sudoeste 21 Sudoeste 0 -- -- 53
2018-04-25 17:00:00 24.9 13 Sudoeste 22 Sur 0 -- -- 60
2018-04-25 16:00:00 24.6 9 Sur 17 Sudoeste 0 -- -- 61
2018-04-25 15:00:00 23.4 6 Sur 18 Sur 0 -- -- 63
2018-04-25 14:00:00 22.4 8 Sur 17 Sudoeste 0 -- -- 66
2018-04-25 13:00:00 21.5 3 Norte 17 Oeste 0 -- -- 65
2018-04-25 12:00:00 19.3 10 Oeste 15 Oeste 0 -- -- 73
2018-04-25 11:00:00 18 2 Sudeste 8 Sudoeste 0 -- -- 76
2018-04-25 10:00:00 16.2 3 Sudoeste 9 Este 0 -- -- 92
2018-04-25 09:00:00 14.1 6 Este 9 Este 0 -- -- 93
2018-04-25 08:00:00 13.4 6 Este 11 Nordeste 0 -- -- 91
2018-04-25 07:00:00 14.1 2 Sudeste 6 Sudoeste 0 -- -- 90
2018-04-25 06:00:00 14.2 3 Sur 12 Sudoeste 0 -- -- 91
2018-04-25 05:00:00 14.3 8 Sudoeste 13 Sudoeste 0 -- -- 91
2018-04-25 04:00:00 14.4 12 Sudoeste 21 Sudoeste 0 -- -- 90
2018-04-25 03:00:00 15 16 Sudoeste 22 Sudoeste 0 -- -- 88
2018-04-25 02:00:00 15.4 15 Sudoeste 20 Sudoeste 0 -- -- 86
2018-04-25 01:00:00 16.1 13 Sur 16 Sur 0 -- -- 82
2018-04-25 00:00:00 16.9 10 Sudoeste 21 Sur 0 -- -- 78